Time;durP1;ratioP1;P1;durP2;ratioP2;P2;SDS_P1;SDS_P2;PMS_P1;PMS_P2;Temp;Humidity;BMP_temperature;BMP_pressure;BME280_temperature;BME280_humidity;BME280_pressure;Samples;Min_cycle;Max_cycle;Signal;HPM_P1;HPM_P2
2021/01/20 00:01:36;;;;;;;68.17;32.20;;;;;;;-10.92;47.16;101027.48;1807307;79;20917;-52
2021/01/20 00:04:04;;;;;;;69.33;31.70;;;;;;;-10.89;46.98;101023.33;1807410;79;21138;-51
2021/01/20 00:06:33;;;;;;;68.13;32.87;;;;;;;-10.86;46.73;101023.09;1807424;79;21367;-56
2021/01/20 00:09:02;;;;;;;65.07;30.97;;;;;;;-10.90;46.51;101030.34;1807439;79;21559;-57
2021/01/20 00:11:30;;;;;;;69.90;33.17;;;;;;;-10.96;46.50;101032.59;1782771;79;21036;-56
2021/01/20 00:13:59;;;;;;;68.07;33.73;;;;;;;-11.02;46.42;101027.30;1807395;79;20954;-56
2021/01/20 00:16:27;;;;;;;63.27;31.17;;;;;;;-11.07;46.33;101024.99;1806818;79;20942;-55
2021/01/20 00:18:55;;;;;;;79.37;37.10;;;;;;;-11.08;46.43;101024.63;1806810;79;21446;-56
2021/01/20 00:21:24;;;;;;;82.53;36.07;;;;;;;-11.03;46.64;101025.14;1806898;79;21126;-57
2021/01/20 00:23:51;;;;;;;71.00;34.73;;;;;;;-10.93;46.72;101027.13;1806816;79;21013;-55
2021/01/20 00:26:20;;;;;;;72.20;34.87;;;;;;;-10.92;46.65;101023.53;1806826;78;20949;-55
2021/01/20 00:28:48;;;;;;;74.50;34.77;;;;;;;-10.94;46.52;101017.56;1806777;79;20943;-55
2021/01/20 00:31:17;;;;;;;76.43;33.37;;;;;;;-10.97;46.36;101019.08;1806856;79;21359;-54
2021/01/20 00:33:46;;;;;;;76.03;33.83;;;;;;;-11.03;46.29;101019.89;1806869;79;20938;-52
2021/01/20 00:36:14;;;;;;;73.17;34.20;;;;;;;-11.09;46.19;101020.33;1806738;79;20969;-54
2021/01/20 00:38:42;;;;;;;73.17;33.97;;;;;;;-11.16;46.21;101019.55;1806763;79;21035;-55
2021/01/20 00:41:10;;;;;;;74.03;35.10;;;;;;;-11.23;46.48;101015.22;1806809;79;21520;-56
2021/01/20 00:43:38;;;;;;;70.57;34.47;;;;;;;-11.28;46.48;101022.11;1806820;79;21371;-55
2021/01/20 00:46:06;;;;;;;71.00;33.67;;;;;;;-11.30;46.36;101019.23;1806761;79;20898;-56
2021/01/20 00:48:34;;;;;;;74.73;35.53;;;;;;;-11.32;46.49;101007.50;1806886;79;20977;-54
2021/01/20 00:51:02;;;;;;;72.90;34.83;;;;;;;-11.32;46.66;101014.55;1806743;79;21571;-55
2021/01/20 00:53:30;;;;;;;70.80;33.77;;;;;;;-11.31;46.63;101007.02;1806820;79;20941;-56
2021/01/20 00:55:58;;;;;;;67.63;32.87;;;;;;;-11.29;46.56;101006.46;1806730;79;21183;-55
2021/01/20 00:58:26;;;;;;;70.73;32.93;;;;;;;-11.31;46.51;101011.80;1806848;79;21484;-56
2021/01/20 01:00:54;;;;;;;69.57;33.53;;;;;;;-11.34;46.39;101009.89;1806796;79;21001;-57
2021/01/20 01:03:23;;;;;;;62.43;32.07;;;;;;;-11.38;46.40;101012.36;1806856;79;21520;-53
2021/01/20 01:05:52;;;;;;;72.27;33.13;;;;;;;-11.41;46.55;101011.25;1806783;79;21013;-53
2021/01/20 01:08:22;;;;;;;70.57;34.47;;;;;;;-11.44;46.53;101010.17;1806755;79;21388;-52
2021/01/20 01:10:52;;;;;;;77.90;34.80;;;;;;;-11.46;46.56;101010.73;1806694;79;21004;-53
2021/01/20 01:13:34;;;;;;;76.60;35.03;;;;;;;-11.41;46.82;101003.37;1805902;79;20977;-55
2021/01/20 01:16:30;;;;;;;73.03;34.97;;;;;;;-11.28;46.92;100999.78;1888683;76;26735;-55
2021/01/20 01:18:58;;;;;;;74.00;33.27;;;;;;;-11.21;46.90;101013.30;1775461;80;22439;-55
2021/01/20 01:21:27;;;;;;;75.50;35.40;;;;;;;-11.22;46.54;101014.27;1774005;81;21440;-56
2021/01/20 01:23:55;;;;;;;81.77;35.40;;;;;;;-11.27;46.43;101012.44;1775339;80;20906;-56
2021/01/20 01:26:23;;;;;;;81.83;37.77;;;;;;;-11.31;46.48;101014.91;1773945;81;20950;-55
2021/01/20 01:28:52;;;;;;;82.77;38.43;;;;;;;-11.34;46.37;101021.70;1775308;80;20997;-54
2021/01/20 01:31:24;;;;;;;86.10;40.30;;;;;;;-11.37;46.33;101030.63;1772387;81;20934;-54
2021/01/20 01:33:53;;;;;;;84.07;40.33;;;;;;;-11.40;46.46;101020.80;1775369;80;21434;-54
2021/01/20 01:36:21;;;;;;;81.83;37.13;;;;;;;-11.41;46.35;101021.28;1748588;81;21001;-55
2021/01/20 01:38:51;;;;;;;86.97;38.10;;;;;;;-11.44;46.34;101009.69;1775456;80;21551;-56
2021/01/20 01:41:21;;;;;;;89.97;37.67;;;;;;;-11.43;46.41;101009.22;1742601;82;21528;-56
2021/01/20 01:43:53;;;;;;;85.27;40.50;;;;;;;-11.44;46.34;101004.92;1774471;80;21577;-55
2021/01/20 01:46:24;;;;;;;85.77;38.50;;;;;;;-11.47;46.31;101002.49;1741817;82;21649;-54
2021/01/20 01:49:09;;;;;;;88.17;37.87;;;;;;;-11.48;46.33;101006.07;1742109;80;21178;-55
2021/01/20 01:51:38;;;;;;;81.13;36.83;;;;;;;-11.51;46.33;101005.32;1743347;82;21473;-56
2021/01/20 01:54:11;;;;;;;80.93;36.70;;;;;;;-11.54;46.31;101014.75;1723627;80;21017;-54
2021/01/20 01:56:39;;;;;;;75.97;36.37;;;;;;;-11.58;46.49;101017.21;1743279;82;20989;-54
2021/01/20 01:59:07;;;;;;;80.20;37.30;;;;;;;-11.59;46.47;101022.10;1775316;80;21188;-54
2021/01/20 02:01:36;;;;;;;77.70;35.30;;;;;;;-11.60;46.22;101024.37;1743243;82;21010;-55
2021/01/20 02:04:06;;;;;;;83.33;36.47;;;;;;;-11.64;46.18;101019.43;1775316;80;20918;-53
2021/01/20 02:06:38;;;;;;;76.07;35.07;;;;;;;-11.66;46.34;101018.67;1743041;82;20938;-55
2021/01/20 02:09:11;;;;;;;79.70;36.53;;;;;;;-11.61;46.53;101022.66;1759774;81;20937;-54
2021/01/20 02:11:48;;;;;;;80.90;35.87;;;;;;;-11.61;46.32;101029.23;1762071;81;22138;-55
2021/01/20 02:14:31;;;;;;;75.33;35.77;;;;;;;-11.61;46.16;101025.77;1761866;81;20972;-54
2021/01/20 02:17:47;;;;;;;80.10;35.10;;;;;;;-11.66;46.08;101026.55;1726224;81;21159;-56
2021/01/20 02:20:41;;;;;;;69.42;34.40;;;;;;;-11.70;46.07;101029.05;1760745;81;20967;-59
2021/01/20 02:23:16;;;;;;;74.17;33.10;;;;;;;-11.74;46.24;101023.16;1734326;81;21076;-55
2021/01/20 02:26:23;;;;;;;66.60;33.20;;;;;;;-11.67;46.37;101018.31;1748281;81;21460;-55
2021/01/20 02:29:47;;;;;;;70.17;31.57;;;;;;;-11.59;46.28;101024.73;1760998;81;21898;-54
2021/01/20 02:32:17;;;;;;;60.03;31.15;;;;;;;-11.57;46.15;101030.70;1750930;80;20960;-54
2021/01/20 02:34:46;;;;;;;73.00;33.43;;;;;;;-11.58;46.46;101030.34;1774625;80;21761;-54
2021/01/20 02:37:13;;;;;;;64.37;31.43;;;;;;;-11.54;46.40;101028.35;1742893;82;21119;-54
2021/01/20 02:39:49;;;;;;;69.10;33.00;;;;;;;-11.55;46.35;101032.77;1771355;80;21379;-53
2021/01/20 02:42:26;;;;;;;66.80;32.23;;;;;;;-11.56;46.29;101037.63;1741835;82;21155;-55
2021/01/20 02:44:57;;;;;;;73.30;32.33;;;;;;;-11.56;46.32;101038.94;1773770;80;20938;-56
2021/01/20 02:47:37;;;;;;;68.67;31.37;;;;;;;-11.54;46.44;101037.54;1773725;80;20933;-53
2021/01/20 02:50:08;;;;;;;68.97;31.87;;;;;;;-11.44;46.58;101032.49;1742402;82;20950;-55
2021/01/20 02:53:01;;;;;;;73.87;33.03;;;;;;;-11.38;46.87;101031.58;1774701;80;21431;-53
2021/01/20 02:55:52;;;;;;;78.57;34.73;;;;;;;-11.28;46.77;101025.21;1742612;82;20949;-53
2021/01/20 02:58:24;;;;;;;72.03;36.20;;;;;;;-11.19;46.64;101038.18;1758062;80;21003;-53
2021/01/20 03:01:04;;;;;;;66.50;32.30;;;;;;;-11.18;46.48;101039.38;1738495;82;20991;-55
2021/01/20 03:03:33;;;;;;;80.43;35.50;;;;;;;-11.17;46.38;101040.21;1747583;82;20985;-56
2021/01/20 03:06:03;;;;;;;77.73;36.97;;;;;;;-11.23;46.43;101037.55;1787413;79;21465;-56
2021/01/20 03:08:32;;;;;;;80.13;38.57;;;;;;;-11.21;46.57;101030.86;1815886;79;20934;-55
2021/01/20 03:11:05;;;;;;;92.80;40.47;;;;;;;-11.16;46.60;101026.95;1816025;79;21609;-55
2021/01/20 03:13:36;;;;;;;83.47;37.53;;;;;;;-11.07;46.47;101036.81;1816002;79;21515;-56
2021/01/20 03:16:07;;;;;;;84.13;35.57;;;;;;;-10.98;46.37;101037.96;1815800;79;21024;-56
2021/01/20 03:18:35;;;;;;;76.90;36.33;;;;;;;-10.92;46.27;101038.83;1816003;78;21199;-56
2021/01/20 03:21:05;;;;;;;76.43;35.07;;;;;;;-10.90;46.26;101042.17;1815971;79;20929;-55
2021/01/20 03:23:34;;;;;;;83.87;36.47;;;;;;;-10.93;45.90;101046.84;1815568;79;21488;-55
2021/01/20 03:26:02;;;;;;;76.10;34.37;;;;;;;-11.05;45.91;101044.14;1815884;79;20973;-55
2021/01/20 03:28:29;;;;;;;80.67;35.57;;;;;;;-11.12;45.84;101048.61;1815936;78;21009;-55
2021/01/20 03:30:58;;;;;;;78.60;35.67;;;;;;;-11.18;45.91;101055.62;1815965;79;21378;-55
2021/01/20 03:33:26;;;;;;;85.30;39.07;;;;;;;-11.27;45.76;101058.41;1815896;79;20938;-56
2021/01/20 03:35:56;;;;;;;79.60;37.63;;;;;;;-11.34;45.91;101057.17;1815846;78;20886;-55
2021/01/20 03:38:24;;;;;;;81.23;36.57;;;;;;;-11.36;46.28;101064.30;1815833;79;20949;-54
2021/01/20 03:40:52;;;;;;;73.33;35.37;;;;;;;-11.35;46.41;101068.16;1815927;79;20918;-56
2021/01/20 03:43:19;;;;;;;81.43;37.43;;;;;;;-11.33;46.53;101068.04;1816021;79;22204;-55
2021/01/20 03:45:47;;;;;;;83.63;38.73;;;;;;;-11.35;46.61;101053.70;1815871;79;21456;-55
2021/01/20 03:48:15;;;;;;;83.53;37.70;;;;;;;-11.29;46.65;101056.38;1815918;78;20902;-56
2021/01/20 03:50:43;;;;;;;74.87;33.97;;;;;;;-11.22;46.53;101058.09;1815899;78;21096;-54
2021/01/20 03:53:11;;;;;;;77.07;37.07;;;;;;;-11.23;46.30;101060.36;1815929;79;20981;-52
2021/01/20 03:55:39;;;;;;;84.57;38.97;;;;;;;-11.22;46.36;101058.92;1815912;79;21388;-52
2021/01/20 03:58:08;;;;;;;98.07;44.37;;;;;;;-11.17;46.39;101047.62;1815751;78;21080;-51
2021/01/20 04:00:36;;;;;;;101.47;44.97;;;;;;;-11.16;46.38;101055.86;1787254;79;20949;-52
2021/01/20 04:03:06;;;;;;;84.13;40.27;;;;;;;-11.13;46.42;101064.85;1814417;79;20918;-55
2021/01/20 04:05:44;;;;;;;73.73;36.57;;;;;;;-11.11;46.26;101063.42;1848558;76;27000;-53
2021/01/20 04:08:12;;;;;;;86.80;38.63;;;;;;;-11.20;45.99;101061.44;1808635;78;20919;-55
2021/01/20 04:10:42;;;;;;;92.27;40.90;;;;;;;-11.22;46.13;101055.46;1759691;81;22267;-55
2021/01/20 04:13:09;;;;;;;96.60;43.37;;;;;;;-11.22;46.41;101053.67;1751232;82;21008;-56
2021/01/20 04:15:38;;;;;;;90.57;42.57;;;;;;;-11.20;46.56;101049.61;1751255;80;20992;-56
2021/01/20 04:18:06;;;;;;;90.80;42.93;;;;;;;-11.18;46.67;101043.80;1751233;81;21050;-54
2021/01/20 04:20:34;;;;;;;73.50;36.03;;;;;;;-11.19;46.63;101036.39;1751331;82;20948;-54
2021/01/20 04:23:02;;;;;;;74.23;34.30;;;;;;;-11.27;46.67;101029.51;1773813;79;21409;-55
2021/01/20 04:25:31;;;;;;;84.47;35.70;;;;;;;-11.41;46.99;101029.63;1782207;79;21538;-56
2021/01/20 04:28:00;;;;;;;74.10;33.13;;;;;;;-11.52;47.25;101026.45;1782240;80;21537;-55
2021/01/20 04:30:29;;;;;;;82.33;35.63;;;;;;;-11.62;47.60;101014.91;1782183;79;21020;-56
2021/01/20 04:32:57;;;;;;;72.77;34.13;;;;;;;-11.71;47.75;101019.47;1752367;80;20944;-55
2021/01/20 04:35:26;;;;;;;79.33;35.17;;;;;;;-11.82;47.85;101020.23;1769084;80;21366;-55
2021/01/20 04:37:55;;;;;;;79.13;34.43;;;;;;;-11.92;47.95;101028.38;1751212;80;20913;-53
2021/01/20 04:40:23;;;;;;;79.53;34.23;;;;;;;-11.95;48.07;101031.23;1751260;82;20944;-54
2021/01/20 04:44:07;;;;;;;81.23;36.73;;;;;;;-11.87;48.10;101025.80;1820222;77;26212;-55
2021/01/20 04:46:36;;;;;;;79.80;35.77;;;;;;;-11.84;47.88;101037.89;1738585;80;20937;-55
2021/01/20 04:49:05;;;;;;;75.57;35.20;;;;;;;-11.79;47.60;101030.03;1775340;80;22796;-55
2021/01/20 04:51:34;;;;;;;82.63;36.27;;;;;;;-11.75;47.50;101026.73;1730861;81;21591;-53
2021/01/20 04:54:02;;;;;;;83.27;37.27;;;;;;;-11.82;47.24;101029.43;1700575;80;20996;-54
2021/01/20 04:56:29;;;;;;;72.80;35.07;;;;;;;-11.93;47.20;101029.33;1706516;81;21021;-54
2021/01/20 04:58:58;;;;;;;77.53;34.60;;;;;;;-12.14;47.38;101028.98;1748920;80;21609;-55
2021/01/20 05:01:26;;;;;;;76.53;36.00;;;;;;;-12.34;47.67;101032.94;1730401;81;21850;-55
2021/01/20 05:03:55;;;;;;;80.80;36.53;;;;;;;-12.58;48.00;101039.31;1775172;80;20984;-53
2021/01/20 05:06:23;;;;;;;87.20;36.57;;;;;;;-12.72;48.33;101044.59;1755516;81;20957;-54
2021/01/20 05:08:51;;;;;;;71.73;34.50;;;;;;;-12.68;48.73;101044.78;1775088;80;21016;-50
2021/01/20 05:11:19;;;;;;;79.37;34.60;;;;;;;-12.63;49.12;101043.54;1745401;81;22580;-51
2021/01/20 05:13:48;;;;;;;73.87;35.17;;;;;;;-12.61;49.45;101052.16;1766255;81;21214;-51
2021/01/20 05:16:25;;;;;;;76.60;34.30;;;;;;;-12.48;49.51;101054.81;1714649;81;20949;-51
2021/01/20 05:18:53;;;;;;;75.73;34.00;;;;;;;-12.26;49.45;101055.58;1766310;81;20925;-53
2021/01/20 05:21:21;;;;;;;76.33;36.13;;;;;;;-12.09;49.34;101068.41;1766316;81;21597;-53
2021/01/20 05:23:49;;;;;;;78.63;36.40;;;;;;;-12.00;48.72;101068.74;1766265;81;21016;-52
2021/01/20 05:26:17;;;;;;;92.87;38.70;;;;;;;-12.00;48.55;101072.20;1766225;81;23448;-52
2021/01/20 05:28:49;;;;;;;89.63;37.67;;;;;;;-11.94;48.58;101063.08;1766247;81;21483;-53
2021/01/20 05:31:26;;;;;;;85.40;37.07;;;;;;;-11.86;48.60;101062.06;1766378;81;21507;-52
2021/01/20 05:33:54;;;;;;;84.93;37.33;;;;;;;-11.79;48.55;101071.20;1738631;81;21169;-52
2021/01/20 05:36:23;;;;;;;81.93;35.80;;;;;;;-11.70;48.52;101077.14;1740653;81;21491;-54
2021/01/20 05:38:52;;;;;;;81.57;36.97;;;;;;;-11.64;48.52;101075.88;1734293;82;21393;-54
2021/01/20 05:41:28;;;;;;;85.87;36.93;;;;;;;-11.59;48.53;101071.98;1734211;82;21143;-53
2021/01/20 05:44:12;;;;;;;82.13;36.00;;;;;;;-11.55;48.41;101073.47;1716606;82;21109;-55
2021/01/20 05:46:43;;;;;;;79.70;35.53;;;;;;;-11.52;48.49;101079.80;1689017;83;21163;-52
2021/01/20 05:49:25;;;;;;;79.50;35.00;;;;;;;-11.46;48.40;101073.28;1712707;83;21583;-56
2021/01/20 05:51:53;;;;;;;68.27;32.53;;;;;;;-11.43;48.42;101091.47;1712566;83;21133;-54
2021/01/20 05:54:38;;;;;;;81.43;35.63;;;;;;;-11.38;48.51;101089.84;1688096;83;21579;-55
2021/01/20 05:57:20;;;;;;;71.97;34.73;;;;;;;-11.33;48.51;101087.27;1712283;83;21532;-51
2021/01/20 05:59:50;;;;;;;70.63;33.23;;;;;;;-11.25;48.38;101092.00;1712038;83;21203;-54
2021/01/20 06:02:19;;;;;;;70.50;34.00;;;;;;;-11.21;48.33;101092.13;1688101;83;21089;-53
2021/01/20 06:04:48;;;;;;;71.67;34.23;;;;;;;-11.18;48.18;101090.61;1688040;83;21357;-53
2021/01/20 06:07:17;;;;;;;73.60;35.47;;;;;;;-11.36;47.98;101055.94;1688100;83;21108;-54
2021/01/20 06:09:46;;;;;;;80.87;36.93;;;;;;;-11.15;47.78;101090.86;1712023;83;20979;-51
2021/01/20 06:12:14;;;;;;;76.80;36.07;;;;;;;-11.23;47.67;101092.72;1688044;83;21548;-53
2021/01/20 06:14:45;;;;;;;79.40;34.93;;;;;;;-11.31;47.59;101089.30;1700302;83;21231;-50
2021/01/20 06:17:20;;;;;;;78.27;34.40;;;;;;;-11.34;47.69;101084.27;1693003;84;21384;-49
2021/01/20 06:19:55;;;;;;;76.47;36.25;;;;;;;-11.33;47.77;101087.73;1686249;84;26899;-52
2021/01/20 06:22:26;;;;;;;77.00;35.30;;;;;;;-11.38;47.74;101086.73;1651410;86;20960;-52
2021/01/20 06:25:22;;;;;;;73.97;33.77;;;;;;;-11.52;47.95;101087.68;1692776;83;21522;-54
2021/01/20 06:27:54;;;;;;;69.30;32.70;;;;;;;-11.64;48.12;101091.16;1683894;83;21165;-56
2021/01/20 06:30:38;;;;;;;67.90;32.93;;;;;;;-11.70;48.40;101095.99;1679262;83;21473;-54
2021/01/20 06:33:11;;;;;;;67.17;30.67;;;;;;;-11.71;48.45;101103.00;1672805;84;20971;-53
2021/01/20 06:35:48;;;;;;;74.80;32.67;;;;;;;-11.70;48.63;101102.55;1672840;85;21249;-49
2021/01/20 06:38:34;;;;;;;71.20;30.93;;;;;;;-11.72;48.42;101097.39;1644093;85;21183;-52
2021/01/20 06:41:12;;;;;;;68.20;31.10;;;;;;;-11.78;48.52;101102.58;1645629;85;21150;-51
2021/01/20 06:43:46;;;;;;;70.47;32.77;;;;;;;-11.81;48.59;101099.31;1651781;85;21390;-56
2021/01/20 06:46:27;;;;;;;;;;;;;;;-11.89;48.61;101099.88;1703261;84;21243;-52
2021/01/20 06:49:01;;;;;;;63.70;29.17;;;;;;;-12.00;48.83;101099.75;1708075;84;20555;-54
2021/01/20 06:51:30;;;;;;;65.80;30.00;;;;;;;-12.13;49.20;101104.95;1698693;84;21045;-50
2021/01/20 06:56:50;;;;;;;57.20;25.07;;;;;;;-12.14;49.61;101107.22;1886593;76;26604;-51
2021/01/20 06:59:25;;;;;;;63.07;29.70;;;;;;;-12.18;49.88;101108.83;1849464;77;20990;-52
2021/01/20 07:02:10;;;;;;;44.77;21.73;;;;;;;-12.19;50.02;101107.98;1849622;77;21318;-53
2021/01/20 07:04:53;;;;;;;42.10;19.02;;;;;;;-12.17;50.35;101102.16;1849573;77;20987;-56
2021/01/20 07:07:55;;;;;;;61.97;27.50;;;;;;;-12.08;50.55;101109.91;1849546;77;21003;-52
2021/01/20 07:10:29;;;;;;;61.63;27.70;;;;;;;-11.58;50.57;101114.84;1849585;77;20974;-54
2021/01/20 07:13:17;;;;;;;59.10;29.73;;;;;;;-10.71;49.60;101108.75;1849556;77;21057;-51
2021/01/20 07:15:49;;;;;;;57.93;29.83;;;;;;;-10.11;48.70;101112.27;1849462;77;21195;-52
2021/01/20 07:18:18;;;;;;;63.33;30.40;;;;;;;-9.36;47.82;101115.84;1849573;77;21069;-51
2021/01/20 07:20:47;;;;;;;64.00;30.87;;;;;;;-8.58;46.83;101114.97;1824144;76;20898;-52
2021/01/20 07:23:17;;;;;;;60.13;31.13;;;;;;;-7.79;45.46;101116.84;1832634;76;20891;-54
2021/01/20 07:25:47;;;;;;;66.63;32.40;;;;;;;-7.10;44.40;101113.98;1740817;80;21128;-52
2021/01/20 07:28:15;;;;;;;81.77;37.10;;;;;;;-6.28;43.18;101116.98;1872907;76;21365;-52
2021/01/20 07:30:45;;;;;;;76.87;36.30;;;;;;;-5.46;41.42;101105.90;1780589;79;21208;-54
2021/01/20 07:33:20;;;;;;;80.43;37.77;;;;;;;-4.78;40.39;101113.62;1854630;76;21057;-54
2021/01/20 07:35:50;;;;;;;71.70;34.08;;;;;;;-4.23;39.11;101122.41;1829346;77;21545;-52
2021/01/20 07:38:19;;;;;;;61.67;31.30;;;;;;;-3.88;38.11;101128.73;1828393;77;20987;-51
2021/01/20 07:40:47;;;;;;;52.73;26.93;;;;;;;-3.57;37.73;101132.33;1824830;77;21411;-57
2021/01/20 07:43:24;;;;;;;51.27;29.30;;;;;;;-3.24;36.44;101131.59;1817990;77;21885;-53
2021/01/20 07:45:53;;;;;;;49.87;29.07;;;;;;;-3.11;36.21;101131.66;1819560;77;21535;-50
2021/01/20 07:48:30;;;;;;;54.27;27.60;;;;;;;-2.97;35.42;101127.09;1815792;78;20967;-55
2021/01/20 07:50:58;;;;;;;52.50;28.20;;;;;;;-2.84;35.21;101130.63;1820280;77;21176;-52
2021/01/20 07:53:26;;;;;;;53.20;28.70;;;;;;;-2.51;34.75;101140.95;1820120;77;21860;-57
2021/01/20 07:55:55;;;;;;;57.75;31.02;;;;;;;-2.12;34.43;101135.42;1824260;77;21185;-58
2021/01/20 07:58:29;;;;;;;58.55;32.58;;;;;;;-1.65;34.15;101132.65;1820177;77;21130;-56
2021/01/20 08:00:58;;;;;;;66.92;34.60;;;;;;;-1.22;33.26;101138.12;1820380;77;21016;-58
2021/01/20 08:03:33;;;;;;;60.92;32.55;;;;;;;-0.83;32.87;101133.38;1822559;77;21169;-57
2021/01/20 08:06:06;;;;;;;58.83;32.58;;;;;;;-0.53;32.11;101135.78;1721767;81;22313;-55
2021/01/20 08:08:32;;;;;;;58.75;31.97;;;;;;;-0.28;32.03;101133.83;1772682;81;20994;-52
2021/01/20 08:11:02;;;;;;;53.25;30.92;;;;;;;-0.09;31.18;101129.39;1764589;81;20988;-54
2021/01/20 08:13:31;;;;;;;50.63;30.45;;;;;;;0.08;31.08;101133.30;1825420;78;21103;-55
2021/01/20 08:16:00;;;;;;;44.42;28.30;;;;;;;0.24;30.31;101136.68;1825641;78;21123;-53
2021/01/20 08:18:28;;;;;;;45.17;27.22;;;;;;;0.26;30.26;101129.83;1702477;81;22359;-54
2021/01/20 08:20:57;;;;;;;42.45;26.37;;;;;;;0.22;30.15;101129.85;1755455;81;21591;-53
2021/01/20 08:23:46;;;;;;;38.75;24.25;;;;;;;0.10;30.07;101134.80;1823726;77;21610;-56
2021/01/20 08:26:13;;;;;;;38.98;24.20;;;;;;;0.01;30.04;101131.01;1819509;77;21539;-54
2021/01/20 08:29:12;;;;;;;42.23;25.08;;;;;;;-0.19;30.15;101141.32;1823376;77;21001;-51
2021/01/20 08:31:41;;;;;;;43.80;25.75;;;;;;;-0.48;30.29;101137.94;1823276;77;22572;-51
2021/01/20 08:34:21;;;;;;;43.65;26.60;;;;;;;-0.89;30.75;101142.09;1820183;77;21159;-53
2021/01/20 08:39:54;;;;;;;41.80;24.23;;;;;;;-1.68;31.77;101131.13;1888366;76;22761;-56
2021/01/20 08:42:30;;;;;;;42.45;23.52;;;;;;;-2.05;32.24;101143.59;1817245;77;21020;-55
2021/01/20 08:45:18;;;;;;;41.43;22.53;;;;;;;-2.45;32.85;101143.80;1849651;77;21415;-52
2021/01/20 08:47:52;;;;;;;39.88;21.33;;;;;;;-2.80;33.28;101140.81;1788285;77;20981;-48
2021/01/20 08:50:43;;;;;;;40.13;21.07;;;;;;;-3.26;33.78;101143.36;1823160;77;21558;-59
2021/01/20 08:53:27;;;;;;;45.30;22.97;;;;;;;-3.67;34.40;101141.22;1825104;77;21198;-57
2021/01/20 08:55:56;;;;;;;41.70;21.37;;;;;;;-4.05;35.04;101142.37;1825773;77;20921;-55
2021/01/20 08:58:30;;;;;;;40.30;21.57;;;;;;;-4.39;35.71;101135.52;1818987;78;21378;-55
2021/01/20 09:01:09;;;;;;;43.10;21.23;;;;;;;-4.65;36.33;101139.86;1821909;78;21492;-52
2021/01/20 09:03:39;;;;;;;36.67;18.73;;;;;;;-4.88;36.80;101140.70;1821394;78;21052;-53
2021/01/20 09:06:16;;;;;;;39.73;18.87;;;;;;;-5.12;37.13;101142.05;1821593;78;21068;-54
2021/01/20 09:08:44;;;;;;;35.40;18.07;;;;;;;-5.32;37.40;101141.73;1821472;78;21131;-51
2021/01/20 09:11:13;;;;;;;38.97;18.37;;;;;;;-5.54;37.72;101134.44;1821733;77;22276;-49
2021/01/20 09:13:50;;;;;;;31.87;17.17;;;;;;;-5.80;38.06;101134.18;1821589;78;21119;-58
2021/01/20 09:16:15;;;;;;;33.60;18.00;;;;;;;-6.05;38.50;101132.95;1821531;78;21075;-50
2021/01/20 09:18:46;;;;;;;38.37;19.50;;;;;;;-6.31;39.03;101133.96;1819159;78;20905;-55
2021/01/20 09:21:15;;;;;;;42.77;20.67;;;;;;;-6.51;39.54;101125.63;1816355;77;21500;-53
2021/01/20 09:23:43;;;;;;;42.57;22.10;;;;;;;-6.57;40.19;101130.14;1816637;77;21204;-59
2021/01/20 09:26:11;;;;;;;43.90;21.13;;;;;;;-6.66;40.46;101134.42;1821934;77;21623;-52
2021/01/20 09:28:39;;;;;;;41.70;20.30;;;;;;;-6.78;40.79;101134.67;1821973;77;21537;-53
2021/01/20 09:31:08;;;;;;;41.57;19.53;;;;;;;-6.84;41.06;101132.91;1823448;77;20973;-55
2021/01/20 09:33:36;;;;;;;40.97;19.57;;;;;;;-6.88;41.28;101139.44;1787908;78;21661;-54
2021/01/20 09:36:08;;;;;;;36.83;19.00;;;;;;;-6.97;41.57;101132.78;1795922;77;21360;-52
2021/01/20 09:38:37;;;;;;;38.97;18.93;;;;;;;-7.01;41.73;101132.69;1784863;80;21480;-56
2021/01/20 09:41:05;;;;;;;42.30;19.63;;;;;;;-7.07;42.01;101135.37;1793869;80;21009;-57
2021/01/20 09:43:33;;;;;;;37.43;18.57;;;;;;;-7.08;42.24;101133.70;1793908;79;21029;-57
2021/01/20 09:46:02;;;;;;;42.23;18.40;;;;;;;-7.11;42.46;101128.17;1793737;80;21133;-58
2021/01/20 09:48:30;;;;;;;34.40;16.23;;;;;;;-7.04;42.52;101135.13;1801698;78;21195;-53
2021/01/20 09:50:59;;;;;;;32.37;15.53;;;;;;;-7.18;42.56;101109.84;1755255;79;21559;-57
2021/01/20 09:53:27;;;;;;;32.83;15.47;;;;;;;-7.06;42.70;101133.08;1760711;79;21205;-57
2021/01/20 09:55:57;;;;;;;41.70;16.80;;;;;;;-7.06;42.84;101137.05;1785063;79;21142;-52
2021/01/20 09:58:25;;;;;;;31.47;16.63;;;;;;;-7.04;42.95;101127.19;1783300;79;21493;-52
2021/01/20 10:00:54;;;;;;;35.67;17.80;;;;;;;-6.96;43.12;101119.41;1774546;80;21205;-54
2021/01/20 10:03:22;;;;;;;39.50;19.27;;;;;;;-6.88;43.16;101124.05;1774557;80;21633;-59
2021/01/20 10:05:51;;;;;;;39.23;18.83;;;;;;;-6.87;43.16;101119.94;1774505;80;21189;-61
2021/01/20 10:08:19;;;;;;;39.40;20.70;;;;;;;-6.90;43.23;101121.52;1774663;80;21111;-57
2021/01/20 10:10:48;;;;;;;38.53;20.10;;;;;;;-7.01;43.34;101115.00;1749053;80;21145;-55
2021/01/20 10:13:16;;;;;;;40.37;19.77;;;;;;;-7.08;43.58;101108.58;1774676;80;21384;-56
2021/01/20 10:15:44;;;;;;;39.83;20.63;;;;;;;-7.12;43.66;101107.99;1774683;80;20955;-53
2021/01/20 10:18:13;;;;;;;42.87;21.37;;;;;;;-7.14;43.72;101105.98;1774641;80;21604;-52
2021/01/20 10:20:41;;;;;;;42.13;20.53;;;;;;;-7.13;44.00;101099.72;1774703;80;21824;-55
2021/01/20 10:23:10;;;;;;;49.80;21.00;;;;;;;-7.09;44.10;101109.06;1725748;83;21087;-50
2021/01/20 10:25:37;;;;;;;40.57;19.80;;;;;;;-7.05;44.09;101110.45;1709012;83;21548;-48
2021/01/20 10:28:06;;;;;;;33.50;18.47;;;;;;;-7.01;44.26;101103.09;1725057;83;21124;-57
2021/01/20 10:30:38;;;;;;;33.67;16.33;;;;;;;-6.91;44.21;101106.62;1708225;83;21073;-52
2021/01/20 10:33:06;;;;;;;34.07;16.87;;;;;;;-6.87;43.89;101104.06;1755074;81;21111;-53
2021/01/20 10:35:35;;;;;;;38.20;18.83;;;;;;;-6.86;43.87;101100.44;1755432;81;21166;-51
2021/01/20 10:38:03;;;;;;;38.20;18.03;;;;;;;-6.87;43.90;101083.38;1754522;81;21221;-51
2021/01/20 10:40:30;;;;;;;38.97;19.40;;;;;;;-6.60;43.71;101102.12;1739431;82;21136;-52
2021/01/20 10:42:59;;;;;;;34.07;16.87;;;;;;;-6.49;43.80;101099.00;1739408;82;21132;-52
2021/01/20 10:45:27;;;;;;;29.70;15.20;;;;;;;-6.45;43.33;101095.95;1716257;82;21219;-52
2021/01/20 10:47:56;;;;;;;33.60;16.67;;;;;;;-6.45;43.21;101092.47;1736979;82;21269;-51
2021/01/20 10:50:25;;;;;;;38.17;19.53;;;;;;;-6.50;43.31;101090.72;1739547;82;23590;-51
2021/01/20 10:52:52;;;;;;;39.33;20.50;;;;;;;-6.47;43.43;101082.52;1739356;82;21596;-52
2021/01/20 10:55:20;;;;;;;40.33;20.17;;;;;;;-6.41;43.40;101092.06;1739287;82;21029;-50
2021/01/20 10:57:49;;;;;;;38.87;19.70;;;;;;;-6.40;43.47;101091.08;1739432;82;21464;-51
2021/01/20 11:00:20;;;;;;;44.00;21.57;;;;;;;-6.35;43.62;101080.91;1737691;82;21160;-53
2021/01/20 11:02:48;;;;;;;48.23;21.23;;;;;;;-6.29;43.36;101080.84;1675396;83;21523;-51
2021/01/20 11:05:17;;;;;;;41.33;19.90;;;;;;;-6.25;43.38;101088.04;1709118;82;21078;-55
2021/01/20 11:07:45;;;;;;;33.73;18.57;;;;;;;-6.20;43.15;101088.46;1698471;83;21587;-48
2021/01/20 11:10:13;;;;;;;41.83;20.97;;;;;;;-6.17;43.01;101083.73;1699789;83;21197;-49
2021/01/20 11:12:41;;;;;;;34.77;19.63;;;;;;;-6.13;43.04;101075.86;1694501;84;21149;-50
2021/01/20 11:15:13;;;;;;;35.70;19.00;;;;;;;-6.03;42.69;101078.52;1704585;83;21603;-50
2021/01/20 11:17:41;;;;;;;35.43;18.47;;;;;;;-5.98;42.49;101077.61;1687116;83;21176;-51
2021/01/20 11:20:11;;;;;;;41.10;20.47;;;;;;;-5.87;42.43;101073.45;1687224;83;21073;-48
2021/01/20 11:22:39;;;;;;;43.03;22.27;;;;;;;-5.76;42.45;101070.64;1711739;83;21144;-53
2021/01/20 11:25:10;;;;;;;36.67;19.13;;;;;;;-5.68;42.62;101076.54;1711704;83;20942;-53
2021/01/20 11:27:38;;;;;;;41.83;20.97;;;;;;;-5.50;42.25;101076.17;1711811;83;21384;-52
2021/01/20 11:30:11;;;;;;;38.50;20.07;;;;;;;-5.32;42.03;101075.41;1711624;83;21147;-51
2021/01/20 11:32:39;;;;;;;40.77;20.63;;;;;;;-5.13;41.79;101075.84;1711836;83;21580;-49